sensor_id;sensor_type;location;lat;lon;timestamp;temperature;humidity
13794;DHT22;31160;49.500;7.772;2023-01-04T00:01:16;6.40;99.90
13794;DHT22;31160;49.500;7.772;2023-01-04T00:03:44;6.20;99.90
13794;DHT22;31160;49.500;7.772;2023-01-04T00:06:13;6.30;99.90
13794;DHT22;31160;49.500;7.772;2023-01-04T00:08:40;6.40;99.90
13794;DHT22;31160;49.500;7.772;2023-01-04T00:11:16;6.40;99.90
13794;DHT22;31160;49.500;7.772;2023-01-04T00:13:44;6.40;99.90
13794;DHT22;31160;49.500;7.772;2023-01-04T00:16:16;6.40;99.90
13794;DHT22;31160;49.500;7.772;2023-01-04T00:18:43;6.40;99.90
13794;DHT22;31160;49.500;7.772;2023-01-04T00:21:18;6.30;99.90
13794;DHT22;31160;49.500;7.772;2023-01-04T00:23:46;6.30;99.90
13794;DHT22;31160;49.500;7.772;2023-01-04T00:26:19;6.20;99.90
13794;DHT22;31160;49.500;7.772;2023-01-04T00:28:47;6.20;99.90
13794;DHT22;31160;49.500;7.772;2023-01-04T00:31:20;6.20;99.90
13794;DHT22;31160;49.500;7.772;2023-01-04T00:33:47;6.20;99.90
13794;DHT22;31160;49.500;7.772;2023-01-04T00:36:14;6.10;99.90
13794;DHT22;31160;49.500;7.772;2023-01-04T00:38:41;6.10;99.90
13794;DHT22;31160;49.500;7.772;2023-01-04T00:41:09;6.10;99.90
13794;DHT22;31160;49.500;7.772;2023-01-04T00:43:56;6.10;99.90
13794;DHT22;31160;49.500;7.772;2023-01-04T00:46:25;6.20;99.90
13794;DHT22;31160;49.500;7.772;2023-01-04T00:48:51;6.30;99.90
13794;DHT22;31160;49.500;7.772;2023-01-04T00:51:26;6.30;99.90
13794;DHT22;31160;49.500;7.772;2023-01-04T00:53:54;6.40;99.90
13794;DHT22;31160;49.500;7.772;2023-01-04T00:56:20;6.30;99.90
13794;DHT22;31160;49.500;7.772;2023-01-04T00:58:47;6.30;99.90
13794;DHT22;31160;49.500;7.772;2023-01-04T01:01:14;6.30;99.90
13794;DHT22;31160;49.500;7.772;2023-01-04T01:03:41;6.30;99.90
13794;DHT22;31160;49.500;7.772;2023-01-04T01:06:10;6.50;99.90
13794;DHT22;31160;49.500;7.772;2023-01-04T01:08:37;6.50;99.90
13794;DHT22;31160;49.500;7.772;2023-01-04T01:11:07;6.60;99.90
13794;DHT22;31160;49.500;7.772;2023-01-04T01:13:35;6.60;99.90
13794;DHT22;31160;49.500;7.772;2023-01-04T01:16:04;6.70;99.90
13794;DHT22;31160;49.500;7.772;2023-01-04T01:18:33;6.60;99.90
13794;DHT22;31160;49.500;7.772;2023-01-04T01:21:04;6.50;99.90
13794;DHT22;31160;49.500;7.772;2023-01-04T01:23:31;6.50;99.90
13794;DHT22;31160;49.500;7.772;2023-01-04T01:26:03;6.60;99.90
13794;DHT22;31160;49.500;7.772;2023-01-04T01:28:30;6.60;99.90
13794;DHT22;31160;49.500;7.772;2023-01-04T01:30:57;6.60;99.90
13794;DHT22;31160;49.500;7.772;2023-01-04T01:33:32;6.60;99.90
13794;DHT22;31160;49.500;7.772;2023-01-04T01:36:00;6.60;99.90
13794;DHT22;31160;49.500;7.772;2023-01-04T01:38:27;6.60;99.90
13794;DHT22;31160;49.500;7.772;2023-01-04T01:40:54;6.50;99.90
13794;DHT22;31160;49.500;7.772;2023-01-04T01:43:22;6.30;99.90
13794;DHT22;31160;49.500;7.772;2023-01-04T01:45:52;6.30;99.90
13794;DHT22;31160;49.500;7.772;2023-01-04T01:48:27;6.40;99.90
13794;DHT22;31160;49.500;7.772;2023-01-04T01:50:58;6.30;99.90
13794;DHT22;31160;49.500;7.772;2023-01-04T01:53:29;6.50;99.90
13794;DHT22;31160;49.500;7.772;2023-01-04T01:55:59;6.30;99.90
13794;DHT22;31160;49.500;7.772;2023-01-04T01:58:36;6.40;99.90
13794;DHT22;31160;49.500;7.772;2023-01-04T02:01:04;6.50;99.90
13794;DHT22;31160;49.500;7.772;2023-01-04T02:03:36;6.50;99.90
13794;DHT22;31160;49.500;7.772;2023-01-04T02:06:07;6.40;99.90
13794;DHT22;31160;49.500;7.772;2023-01-04T02:08:36;6.50;99.90
13794;DHT22;31160;49.500;7.772;2023-01-04T02:11:04;6.50;99.90
13794;DHT22;31160;49.500;7.772;2023-01-04T02:13:33;6.50;99.90
13794;DHT22;31160;49.500;7.772;2023-01-04T02:16:26;6.40;99.90
13794;DHT22;31160;49.500;7.772;2023-01-04T02:19:10;6.40;99.90
13794;DHT22;31160;49.500;7.772;2023-01-04T02:24:40;6.40;99.90
13794;DHT22;31160;49.500;7.772;2023-01-04T02:27:25;6.40;99.90
13794;DHT22;31160;49.500;7.772;2023-01-04T02:33:04;6.40;99.90
13794;DHT22;31160;49.500;7.772;2023-01-04T02:41:20;6.30;99.90
13794;DHT22;31160;49.500;7.772;2023-01-04T02:43:57;6.40;99.90
13794;DHT22;31160;49.500;7.772;2023-01-04T02:46:50;6.40;99.90
13794;DHT22;31160;49.500;7.772;2023-01-04T02:49:18;6.20;99.90
13794;DHT22;31160;49.500;7.772;2023-01-04T02:52:04;6.20;99.90
13794;DHT22;31160;49.500;7.772;2023-01-04T02:54:31;6.20;99.90
13794;DHT22;31160;49.500;7.772;2023-01-04T03:05:31;6.30;99.90
13794;DHT22;31160;49.500;7.772;2023-01-04T03:08:27;6.40;99.90
13794;DHT22;31160;49.500;7.772;2023-01-04T03:13:33;6.40;99.90
13794;DHT22;31160;49.500;7.772;2023-01-04T03:16:11;6.30;99.90
13794;DHT22;31160;49.500;7.772;2023-01-04T03:18:44;6.40;99.90
13794;DHT22;31160;49.500;7.772;2023-01-04T03:21:14;6.30;99.90
13794;DHT22;31160;49.500;7.772;2023-01-04T03:23:44;6.40;99.90
13794;DHT22;31160;49.500;7.772;2023-01-04T03:26:36;6.40;99.90
13794;DHT22;31160;49.500;7.772;2023-01-04T03:29:50;6.50;99.90
13794;DHT22;31160;49.500;7.772;2023-01-04T03:32:50;6.60;99.90
13794;DHT22;31160;49.500;7.772;2023-01-04T03:35:44;6.60;99.90
13794;DHT22;31160;49.500;7.772;2023-01-04T03:41:26;6.70;99.90
13794;DHT22;31160;49.500;7.772;2023-01-04T03:44:45;6.50;99.90
13794;DHT22;31160;49.500;7.772;2023-01-04T03:47:47;6.50;99.90
13794;DHT22;31160;49.500;7.772;2023-01-04T03:50:40;6.70;99.90
13794;DHT22;31160;49.500;7.772;2023-01-04T03:53:08;6.70;99.90
13794;DHT22;31160;49.500;7.772;2023-01-04T03:55:36;6.60;99.90
13794;DHT22;31160;49.500;7.772;2023-01-04T03:58:04;6.60;99.90
13794;DHT22;31160;49.500;7.772;2023-01-04T04:00:32;6.60;99.90
13794;DHT22;31160;49.500;7.772;2023-01-04T04:02:59;6.60;99.90
13794;DHT22;31160;49.500;7.772;2023-01-04T04:05:38;6.80;99.90
13794;DHT22;31160;49.500;7.772;2023-01-04T04:08:24;6.60;99.90
13794;DHT22;31160;49.500;7.772;2023-01-04T04:10:57;6.60;99.90
13794;DHT22;31160;49.500;7.772;2023-01-04T04:13:48;6.60;99.90
13794;DHT22;31160;49.500;7.772;2023-01-04T04:16:16;6.80;99.90
13794;DHT22;31160;49.500;7.772;2023-01-04T04:18:43;6.90;99.90
13794;DHT22;31160;49.500;7.772;2023-01-04T04:21:10;6.90;99.90
13794;DHT22;31160;49.500;7.772;2023-01-04T04:23:36;7.00;99.90
13794;DHT22;31160;49.500;7.772;2023-01-04T04:26:03;7.10;99.90
13794;DHT22;31160;49.500;7.772;2023-01-04T04:28:30;7.00;99.90
13794;DHT22;31160;49.500;7.772;2023-01-04T04:30:57;7.00;99.90
13794;DHT22;31160;49.500;7.772;2023-01-04T04:33:24;6.90;99.90
13794;DHT22;31160;49.500;7.772;2023-01-04T04:35:52;6.80;99.90
13794;DHT22;31160;49.500;7.772;2023-01-04T04:38:20;6.90;99.90
13794;DHT22;31160;49.500;7.772;2023-01-04T04:40:47;6.90;99.90
13794;DHT22;31160;49.500;7.772;2023-01-04T04:43:33;7.10;99.90
13794;DHT22;31160;49.500;7.772;2023-01-04T04:46:00;6.90;99.90
13794;DHT22;31160;49.500;7.772;2023-01-04T04:48:27;6.90;99.90
13794;DHT22;31160;49.500;7.772;2023-01-04T04:50:54;6.90;99.90
13794;DHT22;31160;49.500;7.772;2023-01-04T04:53:21;7.00;99.90
13794;DHT22;31160;49.500;7.772;2023-01-04T04:55:50;7.10;99.90
13794;DHT22;31160;49.500;7.772;2023-01-04T04:58:17;7.00;99.90
13794;DHT22;31160;49.500;7.772;2023-01-04T05:00:44;7.00;99.90
13794;DHT22;31160;49.500;7.772;2023-01-04T05:03:10;7.00;99.90
13794;DHT22;31160;49.500;7.772;2023-01-04T05:05:37;7.10;99.90
13794;DHT22;31160;49.500;7.772;2023-01-04T05:08:04;7.20;99.90
13794;DHT22;31160;49.500;7.772;2023-01-04T05:10:31;7.20;99.90
13794;DHT22;31160;49.500;7.772;2023-01-04T05:12:57;7.20;99.90
13794;DHT22;31160;49.500;7.772;2023-01-04T05:15:35;7.00;99.90
13794;DHT22;31160;49.500;7.772;2023-01-04T05:18:04;7.10;99.90
13794;DHT22;31160;49.500;7.772;2023-01-04T05:20:31;7.10;99.90
13794;DHT22;31160;49.500;7.772;2023-01-04T05:22:58;7.00;99.90
13794;DHT22;31160;49.500;7.772;2023-01-04T05:25:25;7.20;99.90
13794;DHT22;31160;49.500;7.772;2023-01-04T05:27:52;7.20;99.90
13794;DHT22;31160;49.500;7.772;2023-01-04T05:30:19;7.10;99.90
13794;DHT22;31160;49.500;7.772;2023-01-04T05:33:05;7.10;99.90
13794;DHT22;31160;49.500;7.772;2023-01-04T05:35:32;7.00;99.90
13794;DHT22;31160;49.500;7.772;2023-01-04T05:37:59;7.00;99.90
13794;DHT22;31160;49.500;7.772;2023-01-04T05:40:26;6.90;99.90
13794;DHT22;31160;49.500;7.772;2023-01-04T05:42:52;6.90;99.90
13794;DHT22;31160;49.500;7.772;2023-01-04T05:45:20;6.90;99.90
13794;DHT22;31160;49.500;7.772;2023-01-04T05:47:49;6.80;99.90
13794;DHT22;31160;49.500;7.772;2023-01-04T05:50:21;6.90;99.90
13794;DHT22;31160;49.500;7.772;2023-01-04T05:52:48;6.90;99.90
13794;DHT22;31160;49.500;7.772;2023-01-04T05:55:15;6.80;99.90
13794;DHT22;31160;49.500;7.772;2023-01-04T05:57:42;6.80;99.90
13794;DHT22;31160;49.500;7.772;2023-01-04T06:00:10;6.80;99.90
13794;DHT22;31160;49.500;7.772;2023-01-04T06:02:42;6.90;99.90
13794;DHT22;31160;49.500;7.772;2023-01-04T06:05:10;6.90;99.90
13794;DHT22;31160;49.500;7.772;2023-01-04T06:07:38;6.70;99.90
13794;DHT22;31160;49.500;7.772;2023-01-04T06:10:06;6.70;99.90
13794;DHT22;31160;49.500;7.772;2023-01-04T06:12:33;6.70;99.90
13794;DHT22;31160;49.500;7.772;2023-01-04T06:15:00;6.70;99.90
13794;DHT22;31160;49.500;7.772;2023-01-04T06:17:27;6.70;99.90
13794;DHT22;31160;49.500;7.772;2023-01-04T06:19:54;6.80;99.90
13794;DHT22;31160;49.500;7.772;2023-01-04T06:22:20;6.70;99.90
13794;DHT22;31160;49.500;7.772;2023-01-04T06:24:47;6.70;99.90
13794;DHT22;31160;49.500;7.772;2023-01-04T06:27:14;6.80;99.90
13794;DHT22;31160;49.500;7.772;2023-01-04T06:29:40;6.90;99.90
13794;DHT22;31160;49.500;7.772;2023-01-04T06:32:07;6.90;99.90
13794;DHT22;31160;49.500;7.772;2023-01-04T06:34:34;6.90;99.90
13794;DHT22;31160;49.500;7.772;2023-01-04T06:37:01;7.00;99.90
13794;DHT22;31160;49.500;7.772;2023-01-04T06:39:28;7.00;99.90
13794;DHT22;31160;49.500;7.772;2023-01-04T06:41:55;7.00;99.90
13794;DHT22;31160;49.500;7.772;2023-01-04T06:44:31;7.00;99.90
13794;DHT22;31160;49.500;7.772;2023-01-04T06:46:58;6.80;99.90
13794;DHT22;31160;49.500;7.772;2023-01-04T06:49:24;6.90;99.90
13794;DHT22;31160;49.500;7.772;2023-01-04T06:51:51;6.90;99.90
13794;DHT22;31160;49.500;7.772;2023-01-04T06:54:18;6.90;99.90
13794;DHT22;31160;49.500;7.772;2023-01-04T06:56:44;6.80;99.90
13794;DHT22;31160;49.500;7.772;2023-01-04T06:59:11;6.90;99.90
13794;DHT22;31160;49.500;7.772;2023-01-04T07:01:38;7.00;99.90
13794;DHT22;31160;49.500;7.772;2023-01-04T07:04:05;7.10;99.90
13794;DHT22;31160;49.500;7.772;2023-01-04T07:06:31;7.00;99.90
13794;DHT22;31160;49.500;7.772;2023-01-04T07:08:58;7.00;99.90
13794;DHT22;31160;49.500;7.772;2023-01-04T07:11:25;7.10;99.90
13794;DHT22;31160;49.500;7.772;2023-01-04T07:13:51;7.20;99.90
13794;DHT22;31160;49.500;7.772;2023-01-04T07:16:19;7.30;99.90
13794;DHT22;31160;49.500;7.772;2023-01-04T07:18:46;7.20;99.90
13794;DHT22;31160;49.500;7.772;2023-01-04T07:21:13;7.10;99.90
13794;DHT22;31160;49.500;7.772;2023-01-04T07:23:40;7.10;99.90
13794;DHT22;31160;49.500;7.772;2023-01-04T07:26:06;7.10;99.90
13794;DHT22;31160;49.500;7.772;2023-01-04T07:28:33;7.20;99.90
13794;DHT22;31160;49.500;7.772;2023-01-04T07:31:18;7.10;99.90
13794;DHT22;31160;49.500;7.772;2023-01-04T07:33:48;7.10;99.90
13794;DHT22;31160;49.500;7.772;2023-01-04T07:36:15;7.30;99.90
13794;DHT22;31160;49.500;7.772;2023-01-04T07:38:42;7.30;99.90
13794;DHT22;31160;49.500;7.772;2023-01-04T07:41:09;7.30;99.90
13794;DHT22;31160;49.500;7.772;2023-01-04T07:43:36;7.40;99.90
13794;DHT22;31160;49.500;7.772;2023-01-04T07:46:03;7.30;99.90
13794;DHT22;31160;49.500;7.772;2023-01-04T07:48:30;7.30;99.90
13794;DHT22;31160;49.500;7.772;2023-01-04T07:50:56;7.40;99.90
13794;DHT22;31160;49.500;7.772;2023-01-04T07:53:23;7.40;99.90
13794;DHT22;31160;49.500;7.772;2023-01-04T07:55:55;7.30;99.90
13794;DHT22;31160;49.500;7.772;2023-01-04T07:58:22;7.40;99.90
13794;DHT22;31160;49.500;7.772;2023-01-04T08:00:48;7.50;99.90
13794;DHT22;31160;49.500;7.772;2023-01-04T08:03:15;7.50;99.90
13794;DHT22;31160;49.500;7.772;2023-01-04T08:05:43;7.50;99.90
13794;DHT22;31160;49.500;7.772;2023-01-04T08:08:09;7.30;99.90
13794;DHT22;31160;49.500;7.772;2023-01-04T08:10:36;7.50;99.90
13794;DHT22;31160;49.500;7.772;2023-01-04T08:13:03;7.40;99.90
13794;DHT22;31160;49.500;7.772;2023-01-04T08:15:29;7.40;99.90
13794;DHT22;31160;49.500;7.772;2023-01-04T08:17:56;7.40;99.90
13794;DHT22;31160;49.500;7.772;2023-01-04T08:20:23;7.50;99.90
13794;DHT22;31160;49.500;7.772;2023-01-04T08:22:49;7.60;99.90
13794;DHT22;31160;49.500;7.772;2023-01-04T08:25:16;7.60;99.90
13794;DHT22;31160;49.500;7.772;2023-01-04T08:27:43;7.60;99.90
13794;DHT22;31160;49.500;7.772;2023-01-04T08:30:10;7.70;99.90
13794;DHT22;31160;49.500;7.772;2023-01-04T08:32:38;7.40;99.90
13794;DHT22;31160;49.500;7.772;2023-01-04T08:35:05;7.30;99.90
13794;DHT22;31160;49.500;7.772;2023-01-04T08:37:31;7.20;99.90
13794;DHT22;31160;49.500;7.772;2023-01-04T08:40:00;7.30;99.90
13794;DHT22;31160;49.500;7.772;2023-01-04T08:42:27;7.20;99.90
13794;DHT22;31160;49.500;7.772;2023-01-04T08:44:58;7.10;99.90
13794;DHT22;31160;49.500;7.772;2023-01-04T08:47:28;7.20;99.90
13794;DHT22;31160;49.500;7.772;2023-01-04T08:49:56;7.30;99.90
13794;DHT22;31160;49.500;7.772;2023-01-04T08:52:23;7.30;99.90
13794;DHT22;31160;49.500;7.772;2023-01-04T08:54:50;7.30;99.90
13794;DHT22;31160;49.500;7.772;2023-01-04T08:57:17;7.30;99.90
13794;DHT22;31160;49.500;7.772;2023-01-04T08:59:44;7.30;99.90
13794;DHT22;31160;49.500;7.772;2023-01-04T09:02:31;7.40;99.90
13794;DHT22;31160;49.500;7.772;2023-01-04T09:04:58;7.50;99.90
13794;DHT22;31160;49.500;7.772;2023-01-04T09:07:30;7.50;99.90
13794;DHT22;31160;49.500;7.772;2023-01-04T09:09:57;7.40;99.90
13794;DHT22;31160;49.500;7.772;2023-01-04T09:12:23;7.40;99.90
13794;DHT22;31160;49.500;7.772;2023-01-04T09:14:50;7.50;99.90
13794;DHT22;31160;49.500;7.772;2023-01-04T09:17:17;7.50;99.90
13794;DHT22;31160;49.500;7.772;2023-01-04T09:19:43;7.70;99.90
13794;DHT22;31160;49.500;7.772;2023-01-04T09:22:10;7.70;99.90
13794;DHT22;31160;49.500;7.772;2023-01-04T09:24:37;7.70;99.90
13794;DHT22;31160;49.500;7.772;2023-01-04T09:27:03;7.70;99.90
13794;DHT22;31160;49.500;7.772;2023-01-04T09:29:30;7.80;99.90
13794;DHT22;31160;49.500;7.772;2023-01-04T09:31:57;7.70;99.90
13794;DHT22;31160;49.500;7.772;2023-01-04T09:34:24;7.70;99.90
13794;DHT22;31160;49.500;7.772;2023-01-04T09:36:51;7.60;99.90
13794;DHT22;31160;49.500;7.772;2023-01-04T09:39:17;7.80;99.90
13794;DHT22;31160;49.500;7.772;2023-01-04T09:41:55;7.90;99.90
13794;DHT22;31160;49.500;7.772;2023-01-04T09:47:33;7.80;99.90
13794;DHT22;31160;49.500;7.772;2023-01-04T09:50:04;7.90;99.90
13794;DHT22;31160;49.500;7.772;2023-01-04T09:52:48;7.90;99.90
13794;DHT22;31160;49.500;7.772;2023-01-04T09:55:41;7.90;99.90
13794;DHT22;31160;49.500;7.772;2023-01-04T09:58:20;7.80;99.90
13794;DHT22;31160;49.500;7.772;2023-01-04T10:00:58;7.90;99.90
13794;DHT22;31160;49.500;7.772;2023-01-04T10:03:32;8.00;99.90
13794;DHT22;31160;49.500;7.772;2023-01-04T10:06:00;8.00;99.90
13794;DHT22;31160;49.500;7.772;2023-01-04T10:08:27;8.10;99.90
13794;DHT22;31160;49.500;7.772;2023-01-04T10:11:21;8.10;99.90
13794;DHT22;31160;49.500;7.772;2023-01-04T10:28:30;8.20;99.90
13794;DHT22;31160;49.500;7.772;2023-01-04T10:31:18;8.10;99.90
13794;DHT22;31160;49.500;7.772;2023-01-04T10:34:27;8.20;99.90
13794;DHT22;31160;49.500;7.772;2023-01-04T10:37:05;8.20;99.90
13794;DHT22;31160;49.500;7.772;2023-01-04T10:39:37;8.20;99.90
13794;DHT22;31160;49.500;7.772;2023-01-04T10:42:23;8.20;99.90
13794;DHT22;31160;49.500;7.772;2023-01-04T10:50:43;8.40;99.90
13794;DHT22;31160;49.500;7.772;2023-01-04T10:53:21;8.40;99.90
13794;DHT22;31160;49.500;7.772;2023-01-04T11:01:27;8.30;99.90
13794;DHT22;31160;49.500;7.772;2023-01-04T11:04:13;8.20;99.90
13794;DHT22;31160;49.500;7.772;2023-01-04T11:06:48;8.20;99.90
13794;DHT22;31160;49.500;7.772;2023-01-04T11:09:22;8.30;99.90
13794;DHT22;31160;49.500;7.772;2023-01-04T11:11:54;8.30;99.90
13794;DHT22;31160;49.500;7.772;2023-01-04T11:14:22;8.30;99.90
13794;DHT22;31160;49.500;7.772;2023-01-04T11:16:53;8.40;99.90
13794;DHT22;31160;49.500;7.772;2023-01-04T11:19:21;8.40;99.90
13794;DHT22;31160;49.500;7.772;2023-01-04T11:21:52;8.50;99.90
13794;DHT22;31160;49.500;7.772;2023-01-04T11:24:25;8.60;99.90
13794;DHT22;31160;49.500;7.772;2023-01-04T11:27:04;8.50;99.90
13794;DHT22;31160;49.500;7.772;2023-01-04T11:29:37;8.60;99.90
13794;DHT22;31160;49.500;7.772;2023-01-04T11:35:00;8.70;99.90
13794;DHT22;31160;49.500;7.772;2023-01-04T11:37:28;8.70;99.90
13794;DHT22;31160;49.500;7.772;2023-01-04T11:42:43;8.70;99.90
13794;DHT22;31160;49.500;7.772;2023-01-04T11:45:36;8.70;99.90
13794;DHT22;31160;49.500;7.772;2023-01-04T11:48:03;8.70;99.90
13794;DHT22;31160;49.500;7.772;2023-01-04T11:50:48;8.70;99.90
13794;DHT22;31160;49.500;7.772;2023-01-04T11:53:29;8.80;99.90
13794;DHT22;31160;49.500;7.772;2023-01-04T11:58:43;8.70;99.90
13794;DHT22;31160;49.500;7.772;2023-01-04T12:01:20;8.80;99.90
13794;DHT22;31160;49.500;7.772;2023-01-04T12:03:47;8.80;99.90
13794;DHT22;31160;49.500;7.772;2023-01-04T12:06:23;8.70;99.90
13794;DHT22;31160;49.500;7.772;2023-01-04T12:08:50;8.80;99.90
13794;DHT22;31160;49.500;7.772;2023-01-04T12:11:32;8.80;99.90
13794;DHT22;31160;49.500;7.772;2023-01-04T12:14:01;8.80;99.90
13794;DHT22;31160;49.500;7.772;2023-01-04T12:16:47;8.90;99.90
13794;DHT22;31160;49.500;7.772;2023-01-04T12:19:18;8.90;99.90
13794;DHT22;31160;49.500;7.772;2023-01-04T12:21:50;8.70;99.90
13794;DHT22;31160;49.500;7.772;2023-01-04T12:24:28;8.80;99.90
13794;DHT22;31160;49.500;7.772;2023-01-04T12:26:56;8.80;99.90
13794;DHT22;31160;49.500;7.772;2023-01-04T12:37:02;9.00;99.90
13794;DHT22;31160;49.500;7.772;2023-01-04T12:39:43;8.90;99.90
13794;DHT22;31160;49.500;7.772;2023-01-04T12:42:16;8.70;99.90
13794;DHT22;31160;49.500;7.772;2023-01-04T12:50:11;8.70;99.90
13794;DHT22;31160;49.500;7.772;2023-01-04T12:52:40;8.70;99.90
13794;DHT22;31160;49.500;7.772;2023-01-04T13:05:54;8.50;99.90
13794;DHT22;31160;49.500;7.772;2023-01-04T13:08:23;8.50;99.90
13794;DHT22;31160;49.500;7.772;2023-01-04T13:10:55;8.50;99.90
13794;DHT22;31160;49.500;7.772;2023-01-04T13:19:23;8.50;99.90
13794;DHT22;31160;49.500;7.772;2023-01-04T13:21:51;8.60;99.90
13794;DHT22;31160;49.500;7.772;2023-01-04T13:24:47;8.50;99.90
13794;DHT22;31160;49.500;7.772;2023-01-04T13:27:17;8.40;99.90
13794;DHT22;31160;49.500;7.772;2023-01-04T13:29:45;8.50;99.90
13794;DHT22;31160;49.500;7.772;2023-01-04T13:32:25;8.60;99.90
13794;DHT22;31160;49.500;7.772;2023-01-04T13:34:59;8.60;99.90
13794;DHT22;31160;49.500;7.772;2023-01-04T13:42:32;8.50;99.90
13794;DHT22;31160;49.500;7.772;2023-01-04T13:47:50;8.40;99.90
13794;DHT22;31160;49.500;7.772;2023-01-04T13:50:33;8.30;99.90
13794;DHT22;31160;49.500;7.772;2023-01-04T13:53:02;8.40;99.90
13794;DHT22;31160;49.500;7.772;2023-01-04T13:55:36;8.40;99.90
13794;DHT22;31160;49.500;7.772;2023-01-04T13:58:06;8.40;99.90
13794;DHT22;31160;49.500;7.772;2023-01-04T14:00:49;8.40;99.90
13794;DHT22;31160;49.500;7.772;2023-01-04T14:06:33;8.40;99.90
13794;DHT22;31160;49.500;7.772;2023-01-04T14:09:14;8.40;99.90
13794;DHT22;31160;49.500;7.772;2023-01-04T14:11:59;8.40;99.90
13794;DHT22;31160;49.500;7.772;2023-01-04T14:15:05;8.40;99.90
13794;DHT22;31160;49.500;7.772;2023-01-04T14:30:50;8.60;99.90
13794;DHT22;31160;49.500;7.772;2023-01-04T14:36:10;8.60;99.90
13794;DHT22;31160;49.500;7.772;2023-01-04T14:38:54;8.50;99.90
13794;DHT22;31160;49.500;7.772;2023-01-04T14:41:24;8.40;99.90
13794;DHT22;31160;49.500;7.772;2023-01-04T14:44:07;8.40;99.90
13794;DHT22;31160;49.500;7.772;2023-01-04T14:46:35;8.30;99.90
13794;DHT22;31160;49.500;7.772;2023-01-04T14:49:02;8.40;99.90
13794;DHT22;31160;49.500;7.772;2023-01-04T14:51:33;8.20;99.90
13794;DHT22;31160;49.500;7.772;2023-01-04T14:54:04;8.30;99.90
13794;DHT22;31160;49.500;7.772;2023-01-04T14:56:32;8.50;99.90
13794;DHT22;31160;49.500;7.772;2023-01-04T15:03:12;8.40;99.90
13794;DHT22;31160;49.500;7.772;2023-01-04T15:05:42;8.30;99.90
13794;DHT22;31160;49.500;7.772;2023-01-04T15:08:10;8.40;99.90
13794;DHT22;31160;49.500;7.772;2023-01-04T15:10:38;8.40;99.90
13794;DHT22;31160;49.500;7.772;2023-01-04T15:13:04;8.40;99.90
13794;DHT22;31160;49.500;7.772;2023-01-04T15:15:31;8.40;99.90
13794;DHT22;31160;49.500;7.772;2023-01-04T15:18:01;8.30;99.90
13794;DHT22;31160;49.500;7.772;2023-01-04T15:20:27;8.40;99.90
13794;DHT22;31160;49.500;7.772;2023-01-04T15:22:54;8.40;99.90
13794;DHT22;31160;49.500;7.772;2023-01-04T15:25:21;8.40;99.90
13794;DHT22;31160;49.500;7.772;2023-01-04T15:27:48;8.40;99.90
13794;DHT22;31160;49.500;7.772;2023-01-04T15:30:15;8.40;99.90
13794;DHT22;31160;49.500;7.772;2023-01-04T15:32:42;8.50;99.90
13794;DHT22;31160;49.500;7.772;2023-01-04T15:35:10;8.40;99.90
13794;DHT22;31160;49.500;7.772;2023-01-04T15:37:45;8.50;99.90
13794;DHT22;31160;49.500;7.772;2023-01-04T15:40:14;8.50;99.90
13794;DHT22;31160;49.500;7.772;2023-01-04T15:42:42;8.40;99.90
13794;DHT22;31160;49.500;7.772;2023-01-04T15:45:35;8.50;99.90
13794;DHT22;31160;49.500;7.772;2023-01-04T15:48:03;8.50;99.90
13794;DHT22;31160;49.500;7.772;2023-01-04T15:50:33;8.60;99.90
13794;DHT22;31160;49.500;7.772;2023-01-04T15:53:00;8.60;99.90
13794;DHT22;31160;49.500;7.772;2023-01-04T15:55:29;8.50;99.90
13794;DHT22;31160;49.500;7.772;2023-01-04T15:58:02;8.50;99.90
13794;DHT22;31160;49.500;7.772;2023-01-04T16:00:28;8.50;99.90
13794;DHT22;31160;49.500;7.772;2023-01-04T16:02:55;8.60;99.90
13794;DHT22;31160;49.500;7.772;2023-01-04T16:05:22;8.50;99.90
13794;DHT22;31160;49.500;7.772;2023-01-04T16:07:49;8.60;99.90
13794;DHT22;31160;49.500;7.772;2023-01-04T16:10:16;8.50;99.90
13794;DHT22;31160;49.500;7.772;2023-01-04T16:12:42;8.60;99.90
13794;DHT22;31160;49.500;7.772;2023-01-04T16:15:22;8.60;99.90
13794;DHT22;31160;49.500;7.772;2023-01-04T16:17:49;8.60;99.90
13794;DHT22;31160;49.500;7.772;2023-01-04T16:20:17;8.70;99.90
13794;DHT22;31160;49.500;7.772;2023-01-04T16:22:45;8.60;99.90
13794;DHT22;31160;49.500;7.772;2023-01-04T16:25:12;8.60;99.90
13794;DHT22;31160;49.500;7.772;2023-01-04T16:27:39;8.60;99.90
13794;DHT22;31160;49.500;7.772;2023-01-04T16:30:10;8.70;99.90
13794;DHT22;31160;49.500;7.772;2023-01-04T16:32:40;8.70;99.90
13794;DHT22;31160;49.500;7.772;2023-01-04T16:35:10;8.70;99.90
13794;DHT22;31160;49.500;7.772;2023-01-04T16:37:37;8.60;99.90
13794;DHT22;31160;49.500;7.772;2023-01-04T16:40:04;8.70;99.90
13794;DHT22;31160;49.500;7.772;2023-01-04T16:42:34;8.60;99.90
13794;DHT22;31160;49.500;7.772;2023-01-04T16:45:01;8.60;99.90
13794;DHT22;31160;49.500;7.772;2023-01-04T16:47:28;8.60;99.90
13794;DHT22;31160;49.500;7.772;2023-01-04T16:49:54;8.70;99.90
13794;DHT22;31160;49.500;7.772;2023-01-04T16:52:21;8.60;99.90
13794;DHT22;31160;49.500;7.772;2023-01-04T16:54:52;8.60;99.90
13794;DHT22;31160;49.500;7.772;2023-01-04T16:57:18;8.50;99.90
13794;DHT22;31160;49.500;7.772;2023-01-04T16:59:45;8.50;99.90
13794;DHT22;31160;49.500;7.772;2023-01-04T17:02:13;8.50;99.90
13794;DHT22;31160;49.500;7.772;2023-01-04T17:04:40;8.50;99.90
13794;DHT22;31160;49.500;7.772;2023-01-04T17:07:07;8.50;99.90
13794;DHT22;31160;49.500;7.772;2023-01-04T17:09:34;8.50;99.90
13794;DHT22;31160;49.500;7.772;2023-01-04T17:12:00;8.60;99.90
13794;DHT22;31160;49.500;7.772;2023-01-04T17:14:48;8.50;99.90
13794;DHT22;31160;49.500;7.772;2023-01-04T17:17:36;8.50;99.90
13794;DHT22;31160;49.500;7.772;2023-01-04T17:20:03;8.60;99.90
13794;DHT22;31160;49.500;7.772;2023-01-04T17:22:31;8.60;99.90
13794;DHT22;31160;49.500;7.772;2023-01-04T17:25:00;8.60;99.90
13794;DHT22;31160;49.500;7.772;2023-01-04T17:27:27;8.60;99.90
13794;DHT22;31160;49.500;7.772;2023-01-04T17:29:54;8.70;99.90
13794;DHT22;31160;49.500;7.772;2023-01-04T17:32:20;8.60;99.90
13794;DHT22;31160;49.500;7.772;2023-01-04T17:34:48;8.60;99.90
13794;DHT22;31160;49.500;7.772;2023-01-04T17:37:15;8.60;99.90
13794;DHT22;31160;49.500;7.772;2023-01-04T17:39:42;8.70;99.90
13794;DHT22;31160;49.500;7.772;2023-01-04T17:42:08;8.70;99.90
13794;DHT22;31160;49.500;7.772;2023-01-04T17:44:35;8.70;99.90
13794;DHT22;31160;49.500;7.772;2023-01-04T17:47:02;8.60;99.90
13794;DHT22;31160;49.500;7.772;2023-01-04T17:49:28;8.70;99.90
13794;DHT22;31160;49.500;7.772;2023-01-04T17:51:58;8.70;99.90
13794;DHT22;31160;49.500;7.772;2023-01-04T17:54:24;8.80;99.90
13794;DHT22;31160;49.500;7.772;2023-01-04T17:56:52;8.70;99.90
13794;DHT22;31160;49.500;7.772;2023-01-04T17:59:19;8.70;99.90
13794;DHT22;31160;49.500;7.772;2023-01-04T18:01:45;8.60;99.90
13794;DHT22;31160;49.500;7.772;2023-01-04T18:04:12;8.60;99.90
13794;DHT22;31160;49.500;7.772;2023-01-04T18:06:39;8.70;99.90
13794;DHT22;31160;49.500;7.772;2023-01-04T18:09:07;8.70;99.90
13794;DHT22;31160;49.500;7.772;2023-01-04T18:11:35;8.70;99.90
13794;DHT22;31160;49.500;7.772;2023-01-04T18:14:02;8.70;99.90